Station Historical Data
Daily Summary for October 9, 2017 Units:  English    Metric   Both
« Previous Day
Next Day »
Daily Weekly Monthly Yearly Custom
  High: Low: Average:
Temperature: 68.4 °F 59.7 °F 63.9 °F
Dew Point: 63.9 °F 57.1 °F 61 °F
Humidity: 94% 82% 90%
Wind Speed: 12.0mph 0.0mph 2.5mph
Wind Gust: 17.0mph - -
Wind- - SSE
Pressure: 30.02 in 29.70 in -
Precipitation: 0.00 in    
Historical Graphs
 
 
Tabular Data for October 9, 2017
Time Temperature Dew Point Pressure Wind Wind Speed Wind Gust Humidity Rainfall Rate (Hourly)
00:04 63.2 °F 57.9 °F 29.88 in Calm     83% 0.00 in
00:09 63.2 °F 58.3 °F 29.88 in Calm     84% 0.00 in
00:14 63.1 °F 58.2 °F 29.88 in Calm     84% 0.00 in
00:19 63.1 °F 58.5 °F 29.88 in Calm     85% 0.00 in
00:24 63.0 °F 58.4 °F 29.88 in Calm     85% 0.00 in
00:29 62.9 °F 58.6 °F 29.88 in Calm     86% 0.00 in
00:34 62.9 °F 58.6 °F 29.88 in Calm     86% 0.00 in
00:39 62.8 °F 58.5 °F 29.88 in Calm     86% 0.00 in
00:44 62.8 °F 58.5 °F 29.88 in Calm     86% 0.01 in
00:49 62.7 °F 58.8 °F 29.88 in East 2.0 mph 2.0 mph 87% 0.01 in
00:54 62.6 °F 58.7 °F 29.88 in Calm   3.0 mph 87% 0.01 in
00:59 62.5 °F 58.6 °F 29.88 in Calm     87% 0.01 in
01:04 62.5 °F 58.6 °F 29.88 in Calm     87% 0.02 in
01:09 62.4 °F 58.5 °F 29.88 in Calm   3.0 mph 87% 0.02 in
01:14 62.3 °F 58.7 °F 29.89 in East 2.0 mph 3.0 mph 88% 0.03 in
01:19 62.4 °F 58.8 °F 29.89 in SSE 2.0 mph 2.0 mph 88% 0.04 in
01:24 62.3 °F 59.0 °F 29.88 in Calm   3.0 mph 89% 0.04 in
01:29 62.3 °F 59.0 °F 29.89 in ESE 1.0 mph 5.0 mph 89% 0.05 in
01:34 62.3 °F 59.0 °F 29.88 in Calm   5.0 mph 89% 0.06 in
01:39 62.3 °F 59.3 °F 29.88 in Calm     90% 0.07 in
01:44 62.3 °F 59.3 °F 29.88 in Calm     90% 0.08 in
01:49 62.3 °F 59.3 °F 29.88 in Calm     90% 0.09 in
01:54 62.3 °F 59.3 °F 29.88 in Calm     90% 0.10 in
01:59 62.2 °F 59.2 °F 29.88 in Calm   3.0 mph 90% 0.12 in
02:04 62.2 °F 59.2 °F 29.88 in Calm     90% 0.11 in
02:09 62.1 °F 59.4 °F 29.88 in Calm   2.0 mph 91% 0.12 in
02:14 62.1 °F 59.4 °F 29.87 in ENE 1.0 mph 2.0 mph 91% 0.11 in
02:19 62.2 °F 59.5 °F 29.88 in Calm   2.0 mph 91% 0.10 in
02:24 62.2 °F 59.5 °F 29.88 in Calm     91% 0.10 in
02:29 62.2 °F 59.5 °F 29.87 in Calm     91% 0.09 in
02:34 62.2 °F 59.5 °F 29.85 in NE 1.0 mph 5.0 mph 91% 0.10 in
02:44 62.4 °F 59.7 °F 29.85 in Calm   4.0 mph 91% 0.08 in
02:49 62.4 °F 59.7 °F 29.85 in NE 2.0 mph 3.0 mph 91% 0.07 in
03:04 62.5 °F 59.8 °F 29.85 in ENE 1.0 mph 6.0 mph 91% 0.18 in
03:09 62.1 °F 59.4 °F 29.84 in ENE 2.0 mph 8.0 mph 91% 0.22 in
03:14 61.8 °F 59.1 °F 29.83 in ENE 4.0 mph 9.0 mph 91% 0.25 in
03:19 61.3 °F 58.7 °F 29.82 in NE 8.0 mph 11.0 mph 91% 0.26 in
03:24 60.7 °F 58.1 °F 29.82 in NE 6.0 mph 12.0 mph 91% 0.26 in
03:29 60.3 °F 57.7 °F 29.82 in NE 8.0 mph 10.0 mph 91% 0.27 in
03:34 60.0 °F 57.4 °F 29.82 in ENE 3.0 mph 10.0 mph 91% 0.25 in
03:39 59.9 °F 57.3 °F 29.83 in Calm   8.0 mph 91% 0.24 in
03:44 59.8 °F 57.2 °F 29.82 in ENE 9.0 mph 9.0 mph 91% 0.26 in
03:49 59.7 °F 57.1 °F 29.81 in ENE 9.0 mph 12.0 mph 91% 0.27 in
03:59 59.9 °F 57.6 °F 29.81 in ENE 5.0 mph 9.0 mph 92% 0.16 in
04:04 60.2 °F 57.9 °F 29.81 in ENE 4.0 mph 9.0 mph 92% 0.14 in
04:09 60.4 °F 58.1 °F 29.81 in ENE 2.0 mph 7.0 mph 92% 0.08 in
04:14 60.5 °F 58.2 °F 29.80 in NE 2.0 mph 7.0 mph 92% 0.06 in
04:19 60.7 °F 58.4 °F 29.80 in NE 2.0 mph 7.0 mph 92% 0.05 in
04:24 60.9 °F 58.6 °F 29.80 in NE 4.0 mph 8.0 mph 92% 0.05 in
04:29 61.1 °F 58.8 °F 29.79 in NE 4.0 mph 10.0 mph 92% 0.04 in
04:34 61.3 °F 59.0 °F 29.79 in NE 6.0 mph 9.0 mph 92% 0.05 in
04:39 61.5 °F 59.2 °F 29.79 in ENE 5.0 mph 11.0 mph 92% 0.05 in
04:44 61.7 °F 59.4 °F 29.78 in NE 8.0 mph 10.0 mph 92% 0.03 in
04:49 61.8 °F 59.5 °F 29.78 in ENE 4.0 mph 10.0 mph 92% 0.02 in
04:54 61.9 °F 59.5 °F 29.77 in ENE 6.0 mph 12.0 mph 92% 0.02 in
04:59 62.0 °F 59.6 °F 29.77 in NE 6.0 mph 13.0 mph 92% 0.02 in
05:04 62.0 °F 59.6 °F 29.77 in NE 7.0 mph 13.0 mph 92% 0.02 in
05:09 62.0 °F 59.6 °F 29.77 in ENE 6.0 mph 13.0 mph 92% 0.02 in
05:14 62.0 °F 59.6 °F 29.77 in NE 6.0 mph 12.0 mph 92% 0.02 in
05:19 62.0 °F 59.6 °F 29.77 in ENE 5.0 mph 12.0 mph 92% 0.02 in
05:24 62.0 °F 59.6 °F 29.76 in ENE 5.0 mph 11.0 mph 92% 0.02 in
05:29 62.0 °F 59.6 °F 29.76 in NE 7.0 mph 13.0 mph 92% 0.02 in
05:34 62.0 °F 59.6 °F 29.76 in ENE 4.0 mph 8.0 mph 92% 0.02 in
05:39 62.1 °F 59.7 °F 29.75 in ENE 8.0 mph 11.0 mph 92% 0.02 in
05:44 62.0 °F 59.6 °F 29.75 in ENE 7.0 mph 11.0 mph 92% 0.03 in
05:49 62.1 °F 59.7 °F 29.75 in ENE 5.0 mph 11.0 mph 92% 0.03 in
05:54 62.1 °F 59.7 °F 29.74 in ENE 4.0 mph 13.0 mph 92% 0.03 in
05:59 62.1 °F 59.7 °F 29.74 in ENE 5.0 mph 13.0 mph 92% 0.03 in
06:04 62.0 °F 59.6 °F 29.75 in NE 3.0 mph 10.0 mph 92% 0.02 in
06:09 62.1 °F 59.7 °F 29.75 in NE 3.0 mph 8.0 mph 92% 0.02 in
06:14 62.1 °F 59.7 °F 29.75 in ENE 3.0 mph 8.0 mph 92% 0.03 in
06:19 62.1 °F 59.7 °F 29.75 in ENE 3.0 mph 8.0 mph 92% 0.03 in
06:24 62.1 °F 59.7 °F 29.74 in Calm   10.0 mph 92% 0.04 in
06:29 62.1 °F 59.7 °F 29.74 in ENE 4.0 mph 8.0 mph 92% 0.05 in
06:34 62.1 °F 59.7 °F 29.74 in ENE 2.0 mph 5.0 mph 92% 0.06 in
06:39 62.1 °F 59.7 °F 29.74 in ENE 1.0 mph 7.0 mph 92% 0.09 in
06:44 62.1 °F 59.7 °F 29.74 in NE 2.0 mph 8.0 mph 92% 0.09 in
06:49 62.1 °F 59.7 °F 29.74 in NE 2.0 mph 8.0 mph 92% 0.09 in
06:54 62.1 °F 59.7 °F 29.74 in NE 1.0 mph 5.0 mph 92% 0.09 in
06:59 62.1 °F 59.7 °F 29.74 in ENE 1.0 mph 5.0 mph 92% 0.11 in
07:04 62.1 °F 59.7 °F 29.74 in Calm   5.0 mph 92% 0.13 in
07:09 62.1 °F 59.7 °F 29.74 in Calm     92% 0.13 in
07:14 62.1 °F 59.7 °F 29.73 in NE 2.0 mph 2.0 mph 92% 0.14 in
07:19 62.0 °F 59.6 °F 29.73 in Calm   4.0 mph 92% 0.16 in
07:24 61.9 °F 59.5 °F 29.73 in NNE 1.0 mph 4.0 mph 92% 0.17 in
07:29 61.8 °F 59.5 °F 29.73 in NE 2.0 mph 4.0 mph 92% 0.18 in
07:34 61.7 °F 59.7 °F 29.73 in NE 1.0 mph 4.0 mph 93% 0.18 in
07:39 61.7 °F 59.7 °F 29.72 in NE 1.0 mph 3.0 mph 93% 0.20 in
07:44 61.5 °F 59.5 °F 29.72 in NNE 2.0 mph 6.0 mph 93% 0.26 in
07:49 61.3 °F 59.3 °F 29.71 in NNE 2.0 mph 6.0 mph 93% 0.33 in
07:54 61.3 °F 59.3 °F 29.71 in NE 3.0 mph 6.0 mph 93% 0.38 in
07:59 61.2 °F 59.2 °F 29.71 in NNE 3.0 mph 6.0 mph 93% 0.40 in
08:04 61.1 °F 59.1 °F 29.71 in North 4.0 mph 5.0 mph 93% 0.43 in
08:09 61.1 °F 59.1 °F 29.71 in NNE 1.0 mph 6.0 mph 93% 0.48 in
08:14 61.1 °F 59.1 °F 29.71 in North 3.0 mph 9.0 mph 93% 0.49 in
08:19 61.1 °F 59.1 °F 29.71 in North 3.0 mph 9.0 mph 93% 0.51 in
08:24 61.1 °F 59.1 °F 29.71 in North 3.0 mph 10.0 mph 93% 0.52 in
08:29 61.1 °F 59.1 °F 29.70 in NNW 5.0 mph 7.0 mph 93% 0.52 in
08:34 61.1 °F 59.1 °F 29.71 in NE 3.0 mph 9.0 mph 93% 0.51 in
08:39 61.0 °F 59.0 °F 29.71 in NNE 2.0 mph 6.0 mph 93% 0.49 in
08:44 61.1 °F 59.1 °F 29.71 in NNE 3.0 mph 6.0 mph 93% 0.42 in
08:49 61.1 °F 59.1 °F 29.72 in NNE 3.0 mph 6.0 mph 93% 0.38 in
08:54 61.2 °F 59.2 °F 29.72 in NW 2.0 mph 8.0 mph 93% 0.35 in
08:59 61.3 °F 59.3 °F 29.73 in Calm   11.0 mph 93% 0.33 in
09:04 61.4 °F 59.4 °F 29.73 in North 3.0 mph 9.0 mph 93% 0.32 in
09:09 61.5 °F 59.5 °F 29.73 in NNE 3.0 mph 9.0 mph 93% 0.31 in
09:14 61.6 °F 59.6 °F 29.74 in NNE 3.0 mph 9.0 mph 93% 0.31 in
09:19 61.7 °F 59.7 °F 29.73 in NE 3.0 mph 11.0 mph 93% 0.36 in
09:24 61.8 °F 60.1 °F 29.73 in NE 4.0 mph 12.0 mph 94% 0.37 in
09:29 61.9 °F 60.2 °F 29.73 in NE 5.0 mph 11.0 mph 94% 0.39 in
09:34 62.0 °F 60.3 °F 29.73 in NE 3.0 mph 10.0 mph 94% 0.41 in
09:39 62.1 °F 60.1 °F 29.73 in ENE 5.0 mph 14.0 mph 93% 0.39 in
09:44 62.2 °F 60.2 °F 29.73 in NNE 4.0 mph 12.0 mph 93% 0.39 in
09:49 62.3 °F 60.2 °F 29.74 in NE 6.0 mph 13.0 mph 93% 0.37 in
09:54 62.4 °F 60.7 °F 29.74 in NNE 5.0 mph 12.0 mph 94% 0.37 in
09:59 62.6 °F 60.8 °F 29.74 in ENE 4.0 mph 10.0 mph 94% 0.36 in
10:04 62.7 °F 60.6 °F 29.73 in ENE 10.0 mph 13.0 mph 93% 0.34 in
10:09 62.8 °F 60.7 °F 29.74 in NE 6.0 mph 13.0 mph 93% 0.30 in
10:14 63.0 °F 60.9 °F 29.73 in NE 6.0 mph 14.0 mph 93% 0.24 in
10:19 63.2 °F 61.1 °F 29.73 in NE 7.0 mph 14.0 mph 93% 0.16 in
10:24 63.7 °F 61.6 °F 29.73 in ENE 7.0 mph 14.0 mph 93% 0.12 in
10:34 64.0 °F 61.9 °F 29.74 in NE 7.0 mph 17.0 mph 93% 0.07 in
10:39 64.2 °F 62.1 °F 29.74 in NNE 5.0 mph 11.0 mph 93% 0.06 in
10:44 64.1 °F 61.7 °F 29.74 in NE 8.0 mph 11.0 mph 92% 0.04 in
10:49 64.2 °F 61.8 °F 29.74 in NE 5.0 mph 12.0 mph 92% 0.03 in
10:54 64.3 °F 61.9 °F 29.75 in ENE 12.0 mph 13.0 mph 92% 0.02 in
10:59 64.6 °F 62.2 °F 29.75 in ENE 4.0 mph 13.0 mph 92% 0.01 in
11:04 64.8 °F 62.4 °F 29.75 in NE 6.0 mph 13.0 mph 92% 0.00 in
11:09 64.8 °F 62.1 °F 29.75 in NE 5.0 mph 11.0 mph 91% 0.00 in
11:14 64.9 °F 62.2 °F 29.75 in NE 4.0 mph 10.0 mph 91% 0.00 in
11:19 64.9 °F 62.2 °F 29.76 in NE 2.0 mph 10.0 mph 91% 0.00 in
11:24 64.8 °F 62.1 °F 29.76 in Calm   5.0 mph 91% 0.00 in
11:29 64.9 °F 62.2 °F 29.77 in Calm   4.0 mph 91% 0.00 in
11:34 64.9 °F 62.2 °F 29.77 in NNE 1.0 mph 5.0 mph 91% 0.00 in
11:39 64.8 °F 62.1 °F 29.77 in NE 1.0 mph 5.0 mph 91% 0.00 in
11:44 64.9 °F 62.2 °F 29.77 in NE 1.0 mph 7.0 mph 91% 0.00 in
11:49 65.1 °F 62.4 °F 29.77 in NE 1.0 mph 4.0 mph 91% 0.00 in
11:54 65.2 °F 62.5 °F 29.78 in NE 1.0 mph 1.0 mph 91% 0.00 in
11:59 65.0 °F 62.3 °F 29.78 in Calm   4.0 mph 91% 0.00 in
12:04 65.1 °F 62.4 °F 29.78 in NNE 1.0 mph 4.0 mph 91% 0.00 in
12:09 65.1 °F 62.4 °F 29.78 in North 1.0 mph 4.0 mph 91% 0.00 in
12:14 65.0 °F 62.3 °F 29.78 in Calm   5.0 mph 91% 0.00 in
12:19 65.1 °F 62.4 °F 29.78 in North 3.0 mph 5.0 mph 91% 0.00 in
12:24 65.0 °F 62.6 °F 29.78 in North 3.0 mph 8.0 mph 92% 0.00 in
12:29 65.0 °F 62.6 °F 29.79 in Calm   6.0 mph 92% 0.00 in
12:34 65.0 °F 62.6 °F 29.79 in NNW 2.0 mph 6.0 mph 92% 0.00 in
12:39 65.0 °F 62.6 °F 29.79 in NNW 2.0 mph 7.0 mph 92% 0.00 in
12:44 65.0 °F 62.6 °F 29.80 in North 2.0 mph 7.0 mph 92% 0.00 in
12:49 65.1 °F 62.7 °F 29.80 in NNW 2.0 mph 6.0 mph 92% 0.01 in
12:54 65.4 °F 63.0 °F 29.79 in Calm   4.0 mph 92% 0.01 in
13:04 66.0 °F 63.6 °F 29.79 in NNW 2.0 mph 7.0 mph 92% 0.01 in
13:09 66.3 °F 63.9 °F 29.79 in Calm   3.0 mph 92% 0.01 in
13:14 66.4 °F 63.7 °F 29.80 in Calm   2.0 mph 91% 0.01 in
13:19 66.5 °F 63.8 °F 29.80 in NNE 3.0 mph 5.0 mph 91% 0.01 in
13:24 66.1 °F 63.4 °F 29.80 in NNE 1.0 mph 4.0 mph 91% 0.01 in
13:29 65.9 °F 63.2 °F 29.80 in North 2.0 mph 8.0 mph 91% 0.01 in
13:34 66.2 °F 63.5 °F 29.80 in NNW 2.0 mph 8.0 mph 91% 0.01 in
13:39 66.1 °F 63.1 °F 29.81 in NNW 2.0 mph 5.0 mph 90% 0.01 in
13:44 65.9 °F 63.2 °F 29.81 in NNW 2.0 mph 5.0 mph 91% 0.01 in
13:49 66.1 °F 63.4 °F 29.81 in North 2.0 mph 5.0 mph 91% 0.00 in
13:54 66.0 °F 63.0 °F 29.81 in NNE 2.0 mph 5.0 mph 90% 0.00 in
13:59 66.4 °F 63.7 °F 29.81 in Calm   4.0 mph 91% 0.00 in
14:04 66.5 °F 63.8 °F 29.81 in North 1.0 mph 4.0 mph 91% 0.00 in
14:09 66.7 °F 63.7 °F 29.81 in Calm   4.0 mph 90% 0.00 in
14:14 66.9 °F 63.9 °F 29.81 in NNW 1.0 mph 4.0 mph 90% 0.00 in
14:19 67.1 °F 63.7 °F 29.81 in NNW 3.0 mph 3.0 mph 89% 0.00 in
14:24 66.9 °F 63.2 °F 29.82 in North 2.0 mph 6.0 mph 88% 0.00 in
14:29 66.9 °F 63.2 °F 29.82 in NNE 2.0 mph 6.0 mph 88% 0.00 in
14:34 67.4 °F 63.7 °F 29.82 in NE 2.0 mph 6.0 mph 88% 0.00 in
14:39 67.4 °F 63.7 °F 29.82 in NE 1.0 mph 5.0 mph 88% 0.00 in
14:44 67.4 °F 63.4 °F 29.82 in Calm   3.0 mph 87% 0.00 in
14:49 67.3 °F 63.0 °F 29.83 in NW 2.0 mph 5.0 mph 86% 0.00 in
14:54 67.4 °F 63.1 °F 29.83 in NNW 2.0 mph 4.0 mph 86% 0.00 in
14:59 67.5 °F 63.2 °F 29.83 in NNW 1.0 mph 4.0 mph 86% 0.00 in
15:04 68.0 °F 63.3 °F 29.83 in NNW 1.0 mph 4.0 mph 85% 0.00 in
15:09 68.1 °F 63.4 °F 29.84 in Calm   3.0 mph 85% 0.00 in
15:19 68.4 °F 63.0 °F 29.84 in NW 3.0 mph 3.0 mph 83% 0.00 in
15:24 68.4 °F 63.4 °F 29.84 in NNW 3.0 mph 4.0 mph 84% 0.00 in
15:29 68.1 °F 62.7 °F 29.84 in NNW 1.0 mph 4.0 mph 83% 0.00 in
15:34 67.9 °F 62.5 °F 29.84 in Calm   5.0 mph 83% 0.00 in
15:39 68.0 °F 62.6 °F 29.84 in Calm   3.0 mph 83% 0.00 in
15:44 67.8 °F 62.1 °F 29.85 in Calm   4.0 mph 82% 0.00 in
15:49 67.9 °F 62.9 °F 29.85 in West 5.0 mph 7.0 mph 84% 0.00 in
15:54 67.4 °F 63.1 °F 29.86 in WNW 3.0 mph 7.0 mph 86% 0.00 in
15:59 66.8 °F 62.5 °F 29.86 in WNW 3.0 mph 6.0 mph 86% 0.00 in
16:04 66.3 °F 62.3 °F 29.86 in NW 2.0 mph 6.0 mph 87% 0.00 in
16:09 65.7 °F 61.7 °F 29.86 in NW 3.0 mph 8.0 mph 87% 0.00 in
16:19 65.5 °F 61.9 °F 29.86 in WNW 3.0 mph 5.0 mph 88% 0.00 in
16:24 65.4 °F 61.8 °F 29.87 in WNW 1.0 mph 5.0 mph 88% 0.00 in
16:29 65.3 °F 62.0 °F 29.87 in West 3.0 mph 6.0 mph 89% 0.00 in
16:34 65.3 °F 62.0 °F 29.87 in WNW 4.0 mph 7.0 mph 89% 0.00 in
16:39 65.1 °F 61.5 °F 29.87 in Calm   4.0 mph 88% 0.00 in
16:44 65.1 °F 61.8 °F 29.87 in WNW 3.0 mph 4.0 mph 89% 0.00 in
16:49 65.1 °F 61.8 °F 29.87 in West 2.0 mph 3.0 mph 89% 0.00 in
16:54 65.2 °F 61.9 °F 29.88 in WNW 2.0 mph 5.0 mph 89% 0.00 in
16:59 65.0 °F 61.7 °F 29.88 in West 2.0 mph 5.0 mph 89% 0.00 in
17:04 65.2 °F 61.9 °F 29.88 in West 2.0 mph 5.0 mph 89% 0.00 in
17:09 65.1 °F 61.8 °F 29.89 in WNW 2.0 mph 5.0 mph 89% 0.00 in
17:14 65.1 °F 61.8 °F 29.89 in WNW 2.0 mph 4.0 mph 89% 0.00 in
17:19 65.1 °F 61.8 °F 29.89 in West 2.0 mph 6.0 mph 89% 0.00 in
17:24 65.0 °F 61.7 °F 29.90 in Calm   4.0 mph 89% 0.00 in
17:29 65.1 °F 61.8 °F 29.90 in West 2.0 mph 6.0 mph 89% 0.00 in
17:34 65.0 °F 61.4 °F 29.90 in West 3.0 mph 6.0 mph 88% 0.00 in
17:39 65.0 °F 61.4 °F 29.91 in West 3.0 mph 6.0 mph 88% 0.00 in
17:44 64.9 °F 61.3 °F 29.91 in WNW 3.0 mph 7.0 mph 88% 0.00 in
17:49 65.0 °F 61.4 °F 29.91 in WNW 5.0 mph 5.0 mph 88% 0.00 in
17:59 65.1 °F 61.5 °F 29.91 in WNW 2.0 mph 5.0 mph 88% 0.00 in
18:04 65.1 °F 61.5 °F 29.91 in West 1.0 mph 3.0 mph 88% 0.00 in
18:09 65.2 °F 61.6 °F 29.92 in Calm   1.0 mph 88% 0.00 in
18:14 65.2 °F 61.6 °F 29.92 in Calm   3.0 mph 88% 0.00 in
18:19 65.3 °F 61.7 °F 29.92 in Calm     88% 0.00 in
18:24 65.3 °F 61.7 °F 29.92 in Calm     88% 0.00 in
18:29 65.3 °F 61.7 °F 29.93 in Calm     88% 0.00 in
18:34 65.3 °F 61.7 °F 29.93 in Calm     88% 0.00 in
18:39 65.4 °F 61.4 °F 29.93 in Calm     87% 0.00 in
18:44 65.4 °F 61.4 °F 29.93 in Calm     87% 0.00 in
18:49 65.5 °F 61.5 °F 29.94 in Calm     87% 0.00 in
18:54 65.5 °F 61.5 °F 29.94 in Calm     87% 0.00 in
18:59 65.6 °F 61.6 °F 29.94 in Calm     87% 0.00 in
19:09 65.6 °F 61.9 °F 29.95 in SW 3.0 mph 5.0 mph 88% 0.00 in
19:14 65.6 °F 61.6 °F 29.95 in SW 5.0 mph 6.0 mph 87% 0.00 in
19:24 65.5 °F 61.5 °F 29.95 in SW 3.0 mph 6.0 mph 87% 0.00 in
19:29 65.5 °F 61.5 °F 29.95 in SW 2.0 mph 5.0 mph 87% 0.00 in
19:39 65.5 °F 61.5 °F 29.95 in WSW 2.0 mph 7.0 mph 87% 0.00 in
19:49 65.4 °F 61.8 °F 29.95 in Calm   5.0 mph 88% 0.00 in
19:54 65.3 °F 61.7 °F 29.95 in WSW 3.0 mph 8.0 mph 88% 0.00 in
19:59 65.2 °F 61.9 °F 29.96 in SW 1.0 mph 4.0 mph 89% 0.00 in
20:04 65.1 °F 61.8 °F 29.96 in SW 3.0 mph 4.0 mph 89% 0.00 in
20:09 65.0 °F 62.0 °F 29.96 in SW 3.0 mph 4.0 mph 90% 0.00 in
20:14 64.9 °F 61.9 °F 29.96 in SSW 2.0 mph 5.0 mph 90% 0.00 in
20:19 64.9 °F 61.9 °F 29.96 in SW 3.0 mph 5.0 mph 90% 0.00 in
20:24 64.9 °F 62.2 °F 29.96 in SSW 1.0 mph 5.0 mph 91% 0.00 in
20:29 64.9 °F 62.2 °F 29.97 in SSW 2.0 mph 7.0 mph 91% 0.00 in
20:34 64.9 °F 62.2 °F 29.97 in Calm   4.0 mph 91% 0.00 in
20:39 64.9 °F 62.2 °F 29.97 in SSW 2.0 mph 4.0 mph 91% 0.00 in
20:44 64.8 °F 62.1 °F 29.97 in WSW 2.0 mph 6.0 mph 91% 0.00 in
20:49 64.8 °F 62.4 °F 29.97 in SW 3.0 mph 6.0 mph 92% 0.00 in
20:54 64.8 °F 62.4 °F 29.98 in SW 2.0 mph 5.0 mph 92% 0.00 in
20:59 64.8 °F 62.4 °F 29.98 in SW 2.0 mph 5.0 mph 92% 0.00 in
21:04 64.7 °F 62.3 °F 29.98 in SW 2.0 mph 6.0 mph 92% 0.00 in
21:09 64.7 °F 62.3 °F 29.98 in SW 2.0 mph 6.0 mph 92% 0.00 in
21:14 64.8 °F 62.4 °F 29.98 in SW 2.0 mph 5.0 mph 92% 0.00 in
21:19 64.8 °F 62.4 °F 29.99 in SW 4.0 mph 7.0 mph 92% 0.00 in
21:24 64.9 °F 62.5 °F 29.98 in SW 4.0 mph 7.0 mph 92% 0.00 in
21:29 64.9 °F 62.5 °F 29.98 in SSW 4.0 mph 6.0 mph 92% 0.00 in
21:39 64.9 °F 62.5 °F 29.99 in SSW 1.0 mph 6.0 mph 92% 0.00 in
21:44 65.0 °F 62.6 °F 29.99 in SW 2.0 mph 5.0 mph 92% 0.00 in
21:49 65.0 °F 62.6 °F 29.99 in SW 3.0 mph 4.0 mph 92% 0.00 in
21:54 65.0 °F 62.6 °F 29.99 in SW 2.0 mph 4.0 mph 92% 0.00 in
21:59 65.0 °F 62.6 °F 29.99 in SW 2.0 mph 5.0 mph 92% 0.00 in
22:04 65.1 °F 62.7 °F 30.00 in SW 3.0 mph 6.0 mph 92% 0.00 in
22:09 65.1 °F 62.7 °F 30.00 in SSE 2.0 mph 6.0 mph 92% 0.00 in
22:14 65.2 °F 62.8 °F 30.00 in SSW 5.0 mph 9.0 mph 92% 0.00 in
22:19 65.2 °F 62.8 °F 30.00 in SW 4.0 mph 9.0 mph 92% 0.00 in
22:24 65.2 °F 62.8 °F 30.00 in WSW 3.0 mph 9.0 mph 92% 0.00 in
22:29 65.2 °F 62.8 °F 30.00 in SW 6.0 mph 9.0 mph 92% 0.00 in
22:34 65.3 °F 62.6 °F 30.00 in WSW 8.0 mph 8.0 mph 91% 0.00 in
22:39 65.3 °F 62.6 °F 30.00 in SW 2.0 mph 8.0 mph 91% 0.00 in
22:44 65.4 °F 62.7 °F 30.00 in SW 4.0 mph 10.0 mph 91% 0.00 in
22:49 65.3 °F 62.6 °F 30.01 in SW 5.0 mph 14.0 mph 91% 0.00 in
22:59 65.5 °F 62.8 °F 30.01 in WSW 3.0 mph 7.0 mph 91% 0.00 in
23:04 65.5 °F 62.5 °F 30.01 in SW 2.0 mph 10.0 mph 90% 0.00 in
23:09 65.5 °F 62.5 °F 30.01 in WSW 1.0 mph 6.0 mph 90% 0.00 in
23:20 65.6 °F 62.6 °F 30.01 in WSW 4.0 mph 9.0 mph 90% 0.00 in
23:29 65.8 °F 62.8 °F 30.01 in WSW 4.0 mph 10.0 mph 90% 0.00 in
23:34 65.8 °F 62.8 °F 30.02 in WSW 5.0 mph 6.0 mph 90% 0.00 in
23:39 65.8 °F 62.8 °F 30.02 in West 4.0 mph 8.0 mph 90% 0.00 in
23:44 65.9 °F 62.9 °F 30.02 in SW 2.0 mph 6.0 mph 90% 0.00 in
23:49 65.9 °F 62.9 °F 30.02 in WSW 2.0 mph 6.0 mph 90% 0.00 in
23:54 66.0 °F 63.0 °F 30.02 in WSW 3.0 mph 6.0 mph 90% 0.00 in
23:59 65.9 °F 62.9 °F 30.02 in West 2.0 mph 8.0 mph 90% 0.00 in
Buffalo, New York, USA
Compliments of Weather Underground - 2.25 mb